createdAt,value
2017-03-18T00:00:21.962Z,99.99
2017-03-18T00:01:31.202Z,99.99
2017-03-18T00:02:40.091Z,99.99
2017-03-18T00:03:50.106Z,99.99
2017-03-18T00:04:59.640Z,99.99
2017-03-18T00:06:08.849Z,99.99
2017-03-18T00:07:17.734Z,99.99
2017-03-18T00:08:27.270Z,99.99
2017-03-18T00:09:37.709Z,99.99
2017-03-18T00:10:47.575Z,99.99
2017-03-18T00:11:56.787Z,99.99
2017-03-18T00:13:05.997Z,99.99
2017-03-18T00:14:15.862Z,99.99
2017-03-18T00:15:25.883Z,99.99
2017-03-18T00:16:35.098Z,99.99
2017-03-18T00:17:44.309Z,99.99
2017-03-18T00:18:53.852Z,99.99
2017-03-18T00:20:03.398Z,99.99
2017-03-18T00:21:12.589Z,99.99
2017-03-18T00:22:21.803Z,99.99
2017-03-18T00:23:31.347Z,99.99
2017-03-18T00:24:40.564Z,99.99
2017-03-18T00:25:49.776Z,99.99
2017-03-18T00:26:58.717Z,99.99
2017-03-18T00:28:07.934Z,99.99
2017-03-18T00:29:17.797Z,99.99
2017-03-18T00:30:27.661Z,99.99
2017-03-18T00:31:37.197Z,99.99
2017-03-18T00:32:46.240Z,99.99
2017-03-18T00:33:56.111Z,99.99
2017-03-18T00:35:06.336Z,99.99
2017-03-18T00:36:15.875Z,99.99
2017-03-18T00:37:25.412Z,99.99
2017-03-18T00:38:35.444Z,99.99
2017-03-18T00:39:45.311Z,99.99
2017-03-18T00:40:54.530Z,99.99
2017-03-18T00:42:04.064Z,99.99
2017-03-18T00:43:13.285Z,99.99
2017-03-18T00:44:23.520Z,99.99
2017-03-18T00:45:33.384Z,99.99
2017-03-18T00:46:42.597Z,99.99
2017-03-18T00:47:51.812Z,99.99
2017-03-18T00:49:01.029Z,99.99
2017-03-18T00:50:10.578Z,99.99
2017-03-18T00:51:19.789Z,99.99
2017-03-18T00:52:28.672Z,99.99
2017-03-18T00:53:37.886Z,99.99
2017-03-18T00:54:48.079Z,99.99
2017-03-18T00:55:57.995Z,99.99
2017-03-18T00:57:07.527Z,99.99
2017-03-18T00:58:17.067Z,99.99
2017-03-18T00:59:27.260Z,99.99
2017-03-18T01:00:37.116Z,99.99
2017-03-18T01:01:46.404Z,99.99
2017-03-18T01:02:55.940Z,99.99
2017-03-18T01:04:05.474Z,99.99
2017-03-18T01:05:14.688Z,99.99
2017-03-18T01:06:24.229Z,99.99
2017-03-18T01:07:33.598Z,99.99
2017-03-18T01:08:43.473Z,99.99
2017-03-18T01:09:52.695Z,99.99
2017-03-18T01:11:02.564Z,99.99
2017-03-18T01:12:11.777Z,99.99
2017-03-18T01:13:21.396Z,99.99
2017-03-18T01:14:31.264Z,99.99
2017-03-18T01:15:40.805Z,99.99
2017-03-18T01:16:49.690Z,99.99
2017-03-18T01:17:58.585Z,99.99
2017-03-18T01:19:08.000Z,99.99
2017-03-18T01:20:17.537Z,99.99
2017-03-18T01:21:26.773Z,99.99
2017-03-18T01:22:35.991Z,99.99
2017-03-18T01:23:45.857Z,99.99
2017-03-18T01:24:55.555Z,99.99
2017-03-18T01:26:05.091Z,99.99
2017-03-18T01:27:13.977Z,99.99
2017-03-18T01:28:23.519Z,99.99
2017-03-18T01:29:33.311Z,99.99
2017-03-18T01:30:42.699Z,99.99
2017-03-18T01:31:51.912Z,99.99
2017-03-18T01:33:01.446Z,99.99
2017-03-18T01:34:11.319Z,99.99
2017-03-18T01:35:21.517Z,99.99
2017-03-18T01:36:30.551Z,99.99
2017-03-18T01:37:39.768Z,99.99
2017-03-18T01:38:49.312Z,99.99
2017-03-18T01:39:59.504Z,99.99
2017-03-18T01:41:09.043Z,99.99
2017-03-18T01:42:18.730Z,99.99
2017-03-18T01:43:28.589Z,99.99
2017-03-18T01:44:38.127Z,99.99
2017-03-18T01:45:47.667Z,99.99
2017-03-18T01:46:56.555Z,99.99
2017-03-18T01:48:06.572Z,99.99
2017-03-18T01:49:16.759Z,99.99
2017-03-18T01:50:26.947Z,99.99
2017-03-18T01:51:36.170Z,99.99
2017-03-18T01:52:45.717Z,99.99
2017-03-18T01:53:55.827Z,99.99
2017-03-18T01:55:05.365Z,99.99
2017-03-18T01:56:14.575Z,99.99
2017-03-18T01:57:24.759Z,99.99
2017-03-18T01:58:34.625Z,99.99
2017-03-18T01:59:45.493Z,99.99
2017-03-18T02:00:55.382Z,99.99
2017-03-18T02:02:05.240Z,99.99
2017-03-18T02:03:15.112Z,99.99
2017-03-18T02:04:25.020Z,99.99
2017-03-18T02:05:34.485Z,99.99
2017-03-18T02:06:44.022Z,99.99
2017-03-18T02:07:52.912Z,99.99
2017-03-18T02:09:03.101Z,99.99
2017-03-18T02:10:13.616Z,99.99
2017-03-18T02:11:23.594Z,99.99
2017-03-18T02:12:33.135Z,99.99
2017-03-18T02:13:43.330Z,99.99
2017-03-18T02:14:53.200Z,99.99
2017-03-18T02:16:02.743Z,99.99
2017-03-18T02:17:11.679Z,99.99
2017-03-18T02:18:20.894Z,99.99
2017-03-18T02:19:29.781Z,99.99
2017-03-18T02:20:38.995Z,99.99
2017-03-18T02:21:48.205Z,99.99
2017-03-18T02:22:57.989Z,99.99
2017-03-18T02:24:07.529Z,99.99
2017-03-18T02:25:17.071Z,99.99
2017-03-18T02:26:25.967Z,99.99
2017-03-18T02:27:35.498Z,99.99
2017-03-18T02:28:45.752Z,99.99
2017-03-18T02:29:55.944Z,99.99
2017-03-18T02:31:05.482Z,99.99
2017-03-18T02:32:15.016Z,99.99
2017-03-18T02:33:24.230Z,99.99
2017-03-18T02:34:33.795Z,99.99
2017-03-18T02:35:43.037Z,99.99
2017-03-18T02:36:52.251Z,99.99
2017-03-18T02:38:02.111Z,99.99
2017-03-18T02:39:11.655Z,99.99
2017-03-18T02:40:21.375Z,99.99
2017-03-18T02:41:30.916Z,99.99
2017-03-18T02:42:40.452Z,99.99
2017-03-18T02:43:50.650Z,99.99
2017-03-18T02:45:00.522Z,99.99
2017-03-18T02:46:09.560Z,99.99
2017-03-18T02:47:18.767Z,99.99
2017-03-18T02:48:27.981Z,99.99
2017-03-18T02:49:37.196Z,99.99
2017-03-18T02:50:46.083Z,99.99
2017-03-18T02:51:55.216Z,99.99
2017-03-18T02:53:05.421Z,99.99
2017-03-18T02:54:15.280Z,99.99
2017-03-18T02:55:25.143Z,99.99
2017-03-18T02:56:34.026Z,99.99
2017-03-18T02:57:43.712Z,99.99
2017-03-18T02:58:53.573Z,99.99
2017-03-18T03:00:03.438Z,99.99
2017-03-18T03:01:12.658Z,99.99
2017-03-18T03:02:22.202Z,99.99
2017-03-18T03:03:31.462Z,99.99
2017-03-18T03:04:41.331Z,99.99
2017-03-18T03:05:50.555Z,99.99
2017-03-18T03:06:59.445Z,99.99
2017-03-18T03:08:08.658Z,99.99
2017-03-18T03:09:18.722Z,99.99
2017-03-18T03:10:28.587Z,99.99
2017-03-18T03:11:37.470Z,99.99
2017-03-18T03:12:47.333Z,99.99
2017-03-18T03:13:57.205Z,99.99
2017-03-18T03:15:07.445Z,99.99
2017-03-18T03:16:17.310Z,99.99
2017-03-18T03:17:26.852Z,99.99
2017-03-18T03:18:36.711Z,99.99
2017-03-18T03:19:45.926Z,99.99
2017-03-18T03:20:55.854Z,99.99
2017-03-18T03:22:05.068Z,99.99
2017-03-18T03:23:14.282Z,99.99
2017-03-18T03:24:23.495Z,99.99
2017-03-18T03:25:33.031Z,99.99
2017-03-18T03:26:42.349Z,99.99
2017-03-18T03:27:52.215Z,99.99
2017-03-18T03:29:01.430Z,99.99
2017-03-18T03:30:11.301Z,99.99
2017-03-18T03:31:20.839Z,99.99
2017-03-18T03:32:30.300Z,99.99
2017-03-18T03:33:40.499Z,99.99
2017-03-18T03:34:50.040Z,99.99
2017-03-18T03:35:59.903Z,99.99
2017-03-18T03:37:09.115Z,99.99
2017-03-18T03:38:19.234Z,99.99
2017-03-18T03:39:29.125Z,99.99
2017-03-18T03:40:38.018Z,99.99
2017-03-18T03:41:47.881Z,99.99
2017-03-18T03:42:57.416Z,99.99
2017-03-18T03:44:07.010Z,99.99
2017-03-18T03:45:17.193Z,99.99
2017-03-18T03:46:26.727Z,99.99
2017-03-18T03:47:35.945Z,99.99
2017-03-18T03:48:46.140Z,99.99
2017-03-18T03:49:56.391Z,99.99
2017-03-18T03:51:06.253Z,99.99
2017-03-18T03:52:16.114Z,99.99
2017-03-18T03:53:25.327Z,99.99
2017-03-18T03:54:35.196Z,99.99
2017-03-18T03:55:44.458Z,99.99
2017-03-18T03:56:53.344Z,99.99
2017-03-18T03:58:02.883Z,99.99
2017-03-18T03:59:12.765Z,99.99
2017-03-18T04:00:22.306Z,99.99
2017-03-18T04:01:31.997Z,99.99
2017-03-18T04:02:40.896Z,99.99
2017-03-18T04:03:50.765Z,99.99
2017-03-18T04:05:01.284Z,99.99
2017-03-18T04:06:10.821Z,99.99
2017-03-18T04:07:20.508Z,99.99
2017-03-18T04:08:30.382Z,99.99
2017-03-18T04:09:40.574Z,99.99
2017-03-18T04:10:49.828Z,99.99
2017-03-18T04:11:59.073Z,99.99
2017-03-18T04:13:08.801Z,99.99
2017-03-18T04:14:18.996Z,99.99
2017-03-18T04:15:29.519Z,99.99
2017-03-18T04:16:39.380Z,99.99
2017-03-18T04:17:48.592Z,99.99
2017-03-18T04:18:59.258Z,99.99
2017-03-18T04:20:09.453Z,99.99
2017-03-18T04:21:18.991Z,99.99
2017-03-18T04:22:27.874Z,99.99
2017-03-18T04:23:37.737Z,99.99
2017-03-18T04:24:47.656Z,99.99
2017-03-18T04:25:56.875Z,99.99
2017-03-18T04:27:06.741Z,99.99
2017-03-18T04:28:16.276Z,99.99
2017-03-18T04:29:25.171Z,99.99
2017-03-18T04:30:35.506Z,99.99
2017-03-18T04:31:44.744Z,99.99
2017-03-18T04:32:54.283Z,99.99
2017-03-18T04:34:03.824Z,99.99
2017-03-18T04:35:14.014Z,99.99
2017-03-18T04:36:23.223Z,99.99
2017-03-18T04:37:32.763Z,99.99
2017-03-18T04:38:42.954Z,99.99
2017-03-18T04:39:52.824Z,99.99
2017-03-18T04:41:02.695Z,99.99
2017-03-18T04:42:11.956Z,99.99
2017-03-18T04:43:21.829Z,99.99
2017-03-18T04:44:31.696Z,99.99
2017-03-18T04:45:40.904Z,99.99
2017-03-18T04:46:50.445Z,99.99
2017-03-18T04:48:00.361Z,99.99
2017-03-18T04:49:10.226Z,99.99
2017-03-18T04:50:19.771Z,99.99
2017-03-18T04:51:28.657Z,99.99
2017-03-18T04:52:37.874Z,99.99
2017-03-18T04:53:47.568Z,99.99
2017-03-18T04:54:57.435Z,99.99
2017-03-18T04:56:07.304Z,99.99
2017-03-18T04:57:16.518Z,99.99
2017-03-18T04:58:25.728Z,99.99
2017-03-18T04:59:35.328Z,99.99
2017-03-18T05:00:44.871Z,99.99
2017-03-18T05:01:54.084Z,99.99
2017-03-18T05:03:03.631Z,99.99
2017-03-18T05:04:13.820Z,99.99
2017-03-18T05:05:23.902Z,99.99
2017-03-18T05:06:33.115Z,99.99
2017-03-18T05:07:43.635Z,99.99
2017-03-18T05:08:53.175Z,99.99
2017-03-18T05:10:03.381Z,99.99
2017-03-18T05:11:13.395Z,99.99
2017-03-18T05:12:22.930Z,99.99
2017-03-18T05:13:32.471Z,99.99
2017-03-18T05:14:42.667Z,99.99
2017-03-18T05:15:52.543Z,99.99
2017-03-18T05:17:01.831Z,99.99
2017-03-18T05:18:10.726Z,99.99
2017-03-18T05:19:20.590Z,99.99
2017-03-18T05:20:30.794Z,99.99
2017-03-18T05:21:39.677Z,99.99
2017-03-18T05:22:49.375Z,99.99
2017-03-18T05:23:59.893Z,99.99
2017-03-18T05:25:09.768Z,99.99
2017-03-18T05:26:18.977Z,99.99
2017-03-18T05:27:28.191Z,99.99
2017-03-18T05:28:37.929Z,99.99
2017-03-18T05:29:47.466Z,99.99
2017-03-18T05:30:57.657Z,99.99
2017-03-18T05:32:06.872Z,99.99
2017-03-18T05:33:16.411Z,99.99
2017-03-18T05:34:26.756Z,99.99
2017-03-18T05:35:35.972Z,99.99
2017-03-18T05:36:44.889Z,99.99
2017-03-18T05:37:54.105Z,99.99
2017-03-18T05:39:04.296Z,99.99
2017-03-18T05:40:14.637Z,99.99
2017-03-18T05:41:23.847Z,99.99
2017-03-18T05:42:32.744Z,99.99
2017-03-18T05:43:42.613Z,99.99
2017-03-18T05:44:53.158Z,99.99
2017-03-18T05:46:03.005Z,99.99
2017-03-18T05:47:12.548Z,99.99
2017-03-18T05:48:22.414Z,99.99
2017-03-18T05:49:32.277Z,99.99
2017-03-18T05:50:41.819Z,99.99
2017-03-18T05:51:51.185Z,99.99
2017-03-18T05:53:00.725Z,99.99
2017-03-18T05:54:10.916Z,99.99
2017-03-18T05:55:20.777Z,99.99
2017-03-18T05:56:29.663Z,99.99
2017-03-18T05:57:39.455Z,99.99
2017-03-18T05:58:49.648Z,99.99
2017-03-18T05:59:59.516Z,99.99
2017-03-18T06:01:08.736Z,99.99
2017-03-18T06:02:18.283Z,99.99
2017-03-18T06:03:28.128Z,99.99
2017-03-18T06:04:38.697Z,99.99
2017-03-18T06:05:47.912Z,99.99
2017-03-18T06:06:57.126Z,99.99
2017-03-18T06:08:06.340Z,99.99
2017-03-18T06:09:15.990Z,99.99
2017-03-18T06:10:25.536Z,99.99
2017-03-18T06:11:35.400Z,99.99
2017-03-18T06:12:44.941Z,99.99
2017-03-18T06:13:55.462Z,99.99
2017-03-18T06:15:04.775Z,99.99
2017-03-18T06:16:13.671Z,99.99
2017-03-18T06:17:22.886Z,99.99
2017-03-18T06:18:32.104Z,99.99
2017-03-18T06:19:41.650Z,99.99
2017-03-18T06:20:50.943Z,99.99
2017-03-18T06:22:00.482Z,99.99
2017-03-18T06:23:09.697Z,99.99
2017-03-18T06:24:19.245Z,99.99
2017-03-18T06:25:29.439Z,99.99
2017-03-18T06:26:38.476Z,99.99
2017-03-18T06:27:47.368Z,99.99
2017-03-18T06:28:57.887Z,99.99
2017-03-18T06:30:07.427Z,99.99
2017-03-18T06:31:17.290Z,99.99
2017-03-18T06:32:27.077Z,99.99
2017-03-18T06:33:36.619Z,99.99
2017-03-18T06:34:46.204Z,99.99
2017-03-18T06:35:56.115Z,99.99
2017-03-18T06:37:05.671Z,99.99
2017-03-18T06:38:15.954Z,99.99
2017-03-18T06:39:26.564Z,99.99
2017-03-18T06:40:35.837Z,99.99
2017-03-18T06:41:45.061Z,99.99
2017-03-18T06:42:54.606Z,99.99
2017-03-18T06:44:04.959Z,99.99
2017-03-18T06:45:14.832Z,99.99
2017-03-18T06:46:24.157Z,99.99
2017-03-18T06:47:34.057Z,99.99
2017-03-18T06:48:43.296Z,99.99
2017-03-18T06:49:52.987Z,99.99
2017-03-18T06:51:02.528Z,99.99
2017-03-18T06:52:11.741Z,99.99
2017-03-18T06:53:21.287Z,99.99
2017-03-18T06:54:30.832Z,99.99
2017-03-18T06:55:40.776Z,99.99
2017-03-18T06:56:50.012Z,99.99
2017-03-18T06:57:59.552Z,99.99
2017-03-18T06:59:09.757Z,99.99
2017-03-18T07:00:18.973Z,99.99
2017-03-18T07:01:28.276Z,99.99
2017-03-18T07:02:38.533Z,99.99
2017-03-18T07:03:48.454Z,99.99
2017-03-18T07:04:58.000Z,99.99
2017-03-18T07:06:06.894Z,99.99
2017-03-18T07:07:15.940Z,99.99
2017-03-18T07:08:24.830Z,99.99
2017-03-18T07:09:34.050Z,99.22
2017-03-18T07:10:43.271Z,99.99
2017-03-18T07:11:52.164Z,99.99
2017-03-18T07:13:01.857Z,99.99
2017-03-18T07:14:11.777Z,99.99
2017-03-18T07:15:21.969Z,99.99
2017-03-18T07:16:31.833Z,99.99
2017-03-18T07:17:41.374Z,99.99
2017-03-18T07:18:52.144Z,99.99
2017-03-18T07:20:02.347Z,99.99
2017-03-18T07:21:11.239Z,99.99
2017-03-18T07:22:20.783Z,99.99
2017-03-18T07:23:30.001Z,99.99
2017-03-18T07:24:39.920Z,99.99
2017-03-18T07:25:49.140Z,99.6
2017-03-18T07:26:58.356Z,96.55
2017-03-18T07:28:07.896Z,96.55
2017-03-18T07:29:18.414Z,95.41
2017-03-18T07:30:28.588Z,97.41
2017-03-18T07:31:38.136Z,97.13
2017-03-18T07:32:47.686Z,97.03
2017-03-18T07:33:57.556Z,97.31
2017-03-18T07:35:07.425Z,97.03
2017-03-18T07:36:16.789Z,96.26
2017-03-18T07:37:26.331Z,96.26
2017-03-18T07:38:36.202Z,97.41
2017-03-18T07:39:46.395Z,95.6
2017-03-18T07:40:55.937Z,93.79
2017-03-18T07:42:04.976Z,93.7
2017-03-18T07:43:14.848Z,94.74
2017-03-18T07:44:25.042Z,92.36
2017-03-18T07:45:34.264Z,92.46
2017-03-18T07:46:43.480Z,93.32
2017-03-18T07:47:52.952Z,93.98
2017-03-18T07:49:02.173Z,93.04
2017-03-18T07:50:12.692Z,93.7
2017-03-18T07:51:22.230Z,95.03
2017-03-18T07:52:31.470Z,93.23
2017-03-18T07:53:40.612Z,94.08
2017-03-18T07:54:50.484Z,93.89
2017-03-18T07:56:00.026Z,93.98
2017-03-18T07:57:09.246Z,94.18
2017-03-18T07:58:19.109Z,92.36
2017-03-18T07:59:29.281Z,91.7
2017-03-18T08:00:38.818Z,91.22
2017-03-18T08:01:47.704Z,90.66
2017-03-18T08:02:57.577Z,89.89
2017-03-18T08:04:07.775Z,89.14
2017-03-18T08:05:17.347Z,89.89
2017-03-18T08:06:26.240Z,90.37
2017-03-18T08:07:35.141Z,91.13
2017-03-18T08:08:45.012Z,89.32
2017-03-18T08:09:55.538Z,90.37
2017-03-18T08:11:05.286Z,89.51
2017-03-18T08:12:14.508Z,91.8
2017-03-18T08:13:23.722Z,89.32
2017-03-18T08:14:33.589Z,89.7
2017-03-18T08:15:42.477Z,89.61
2017-03-18T08:16:51.694Z,89.32
2017-03-18T08:18:01.238Z,90.75
2017-03-18T08:19:11.433Z,89.04
2017-03-18T08:20:20.653Z,90.66
2017-03-18T08:21:29.543Z,89.7
2017-03-18T08:22:39.404Z,89.7
2017-03-18T08:23:49.280Z,87.42
2017-03-18T08:24:59.149Z,87.28
2017-03-18T08:26:08.695Z,86.76
2017-03-18T08:27:17.587Z,88.37
2017-03-18T08:28:27.386Z,87.8
2017-03-18T08:29:36.942Z,87.47
2017-03-18T08:30:46.808Z,86.71
2017-03-18T08:31:56.023Z,87.19
2017-03-18T08:33:06.217Z,88.42
2017-03-18T08:34:15.686Z,88.33
2017-03-18T08:35:24.902Z,88.33
2017-03-18T08:36:34.137Z,87.28
2017-03-18T08:37:43.030Z,89.09
2017-03-18T08:38:52.583Z,89.09
2017-03-18T08:40:02.179Z,89.37
2017-03-18T08:41:11.393Z,87.09
2017-03-18T08:42:20.617Z,87.28
2017-03-18T08:43:30.539Z,87.38
2017-03-18T08:44:40.081Z,87.19
2017-03-18T08:45:49.355Z,88.23
2017-03-18T08:46:58.903Z,88.61
2017-03-18T08:48:08.448Z,88.33
2017-03-18T08:49:17.339Z,88.04
2017-03-18T08:50:27.858Z,88.42
2017-03-18T08:51:37.223Z,85.57
2017-03-18T08:52:46.113Z,85.66
2017-03-18T08:53:56.312Z,86.14
2017-03-18T08:55:05.922Z,84.81
2017-03-18T08:56:15.467Z,85.28
2017-03-18T08:57:24.515Z,85.28
2017-03-18T08:58:34.056Z,86.33
2017-03-18T08:59:43.604Z,84.33
2017-03-18T09:00:52.819Z,87.47
2017-03-18T09:02:01.709Z,84.14
2017-03-18T09:03:10.754Z,85.28
2017-03-18T09:04:20.300Z,83.76
2017-03-18T09:05:29.841Z,84.05
2017-03-18T09:06:40.030Z,84.24
2017-03-18T09:07:49.250Z,84.24
2017-03-18T09:08:58.852Z,84.62
2017-03-18T09:10:09.045Z,84.33
2017-03-18T09:11:18.590Z,85.1
2017-03-18T09:12:27.806Z,83.67
2017-03-18T09:13:37.356Z,83.29
2017-03-18T09:14:46.725Z,82.91
2017-03-18T09:15:56.599Z,82.43
2017-03-18T09:17:05.815Z,82.71
2017-03-18T09:18:14.707Z,82.87
2017-03-18T09:19:24.584Z,84.39
2017-03-18T09:20:33.717Z,83.86
2017-03-18T09:21:42.610Z,84.24
2017-03-18T09:22:51.835Z,84.05
2017-03-18T09:24:01.714Z,83.34
2017-03-18T09:25:11.254Z,83.34
2017-03-18T09:26:20.480Z,83.34
2017-03-18T09:27:29.705Z,82.96
2017-03-18T09:28:39.252Z,83.06
2017-03-18T09:29:48.797Z,82.68
2017-03-18T09:30:58.340Z,82.49
2017-03-18T09:32:07.231Z,82.71
2017-03-18T09:33:16.453Z,81.86
2017-03-18T09:34:26.324Z,80.24
2017-03-18T09:35:35.537Z,81.63
2017-03-18T09:36:45.075Z,82.01
2017-03-18T09:37:54.017Z,82.58
2017-03-18T09:39:03.886Z,82.68
2017-03-18T09:40:13.437Z,82.29
2017-03-18T09:41:22.974Z,82.01
2017-03-18T09:42:31.864Z,80.96
2017-03-18T09:43:41.407Z,81.25
2017-03-18T09:44:51.647Z,80.02
2017-03-18T09:46:01.524Z,80.68
2017-03-18T09:47:10.419Z,80.02
2017-03-18T09:48:19.638Z,82.1
2017-03-18T09:49:29.536Z,80.4
2017-03-18T09:50:38.750Z,80.96
2017-03-18T09:51:47.750Z,81.16
2017-03-18T09:52:57.292Z,81.16
2017-03-18T09:54:07.159Z,81.82
2017-03-18T09:55:16.705Z,82.01
2017-03-18T09:56:25.923Z,81.73
2017-03-18T09:57:35.065Z,82.1
2017-03-18T09:58:44.621Z,81.82
2017-03-18T09:59:54.814Z,80.68
2017-03-18T10:01:04.361Z,82.2
2017-03-18T10:02:13.265Z,83.15
2017-03-18T10:03:22.216Z,82.39
2017-03-18T10:04:32.113Z,82.77
2017-03-18T10:05:41.990Z,84.86
2017-03-18T10:06:50.880Z,83.15
2017-03-18T10:08:00.756Z,84.58
2017-03-18T10:09:10.031Z,82.96
2017-03-18T10:10:19.895Z,81.06
2017-03-18T10:11:29.109Z,80.49
2017-03-18T10:12:38.327Z,80.58
2017-03-18T10:13:48.869Z,83.06
2017-03-18T10:14:58.987Z,82.01
2017-03-18T10:16:08.857Z,82.01
2017-03-18T10:17:17.757Z,81.16
2017-03-18T10:18:26.647Z,81.35
2017-03-18T10:19:35.535Z,81.44
2017-03-18T10:20:45.232Z,81.73
2017-03-18T10:21:54.123Z,81.25
2017-03-18T10:23:03.014Z,83.34
2017-03-18T10:24:12.561Z,81.73
2017-03-18T10:25:22.110Z,81.82
2017-03-18T10:26:31.704Z,79.63
2017-03-18T10:27:40.964Z,79.54
2017-03-18T10:28:49.854Z,79.54
2017-03-18T10:29:59.461Z,79.83
2017-03-18T10:31:08.357Z,80.49
2017-03-18T10:32:18.047Z,82.01
2017-03-18T10:33:27.924Z,79.54
2017-03-18T10:34:37.150Z,80.3
2017-03-18T10:35:46.368Z,79.73
2017-03-18T10:36:55.912Z,80.96
2017-03-18T10:38:05.276Z,80.96
2017-03-18T10:39:15.516Z,80.21
2017-03-18T10:40:25.383Z,81.16
2017-03-18T10:41:34.600Z,80.87
2017-03-18T10:42:43.492Z,81.54
2017-03-18T10:43:53.187Z,81.06
2017-03-18T10:45:02.084Z,80.68
2017-03-18T10:46:11.303Z,81.2
2017-03-18T10:47:20.530Z,79.68
2017-03-18T10:48:29.755Z,80.63
2017-03-18T10:49:39.210Z,80.82
2017-03-18T10:50:48.753Z,80.91
2017-03-18T10:51:58.302Z,80.49
2017-03-18T10:53:07.199Z,79.44
2017-03-18T10:54:16.748Z,78.59
2017-03-18T10:55:26.073Z,78.78
2017-03-18T10:56:35.289Z,78.3
2017-03-18T10:57:44.511Z,78.02
2017-03-18T10:58:53.735Z,78.02
2017-03-18T11:00:03.613Z,78.4
2017-03-18T11:01:13.403Z,81.54
2017-03-18T11:02:22.629Z,77.92
2017-03-18T11:03:32.169Z,78.59
2017-03-18T11:04:42.366Z,76.82
2017-03-18T11:05:51.940Z,75.93
2017-03-18T11:07:01.208Z,76.78
2017-03-18T11:08:10.426Z,75.84
2017-03-18T11:09:19.978Z,75.45
2017-03-18T11:10:29.534Z,77.2
2017-03-18T11:11:38.758Z,75.68
2017-03-18T11:12:47.808Z,75.02
2017-03-18T11:13:58.016Z,74.35
2017-03-18T11:15:07.935Z,75.3
2017-03-18T11:16:16.837Z,77.2
2017-03-18T11:17:26.048Z,76.54
2017-03-18T11:18:35.696Z,75.49
2017-03-18T11:19:45.252Z,76.35
2017-03-18T11:20:55.120Z,75.87
2017-03-18T11:22:04.663Z,75.68
2017-03-18T11:23:13.880Z,77.2
2017-03-18T11:24:23.899Z,74.82
2017-03-18T11:25:33.444Z,74.26
2017-03-18T11:26:42.664Z,73.97
2017-03-18T11:27:51.882Z,73.88
2017-03-18T11:29:01.752Z,74.07
2017-03-18T11:30:12.100Z,74.82
2017-03-18T11:31:21.316Z,75.68
2017-03-18T11:32:30.541Z,76.16
2017-03-18T11:33:40.418Z,73.3
2017-03-18T11:34:49.972Z,73.11
2017-03-18T11:35:59.895Z,72.83
2017-03-18T11:37:09.116Z,73.21
2017-03-18T11:38:18.664Z,75.02
2017-03-18T11:39:27.889Z,74.07
2017-03-18T11:40:37.446Z,73.78
2017-03-18T11:41:46.814Z,74.77
2017-03-18T11:42:56.408Z,73.63
2017-03-18T11:44:05.324Z,74.58
2017-03-18T11:45:14.217Z,73.91
2017-03-18T11:46:23.455Z,70.97
2017-03-18T11:47:33.042Z,71.06
2017-03-18T11:48:42.863Z,73.34
2017-03-18T11:49:52.426Z,71.06
2017-03-18T11:51:02.321Z,67.57
2017-03-18T11:52:11.222Z,69.15
2017-03-18T11:53:20.512Z,69.06
2017-03-18T11:54:30.741Z,69.25
2017-03-18T11:55:40.294Z,70.97
2017-03-18T11:56:49.512Z,69.73
2017-03-18T11:57:58.404Z,69.06
2017-03-18T11:59:07.975Z,69.5
2017-03-18T12:00:17.858Z,70.17
2017-03-18T12:01:27.078Z,70.45
2017-03-18T12:02:36.302Z,70.54
2017-03-18T12:03:46.207Z,71.12
2017-03-18T12:04:56.241Z,73.02
2017-03-18T12:06:05.787Z,70.77
2017-03-18T12:07:14.680Z,69.73
2017-03-18T12:08:23.572Z,69.63
2017-03-18T12:09:33.121Z,70.39
2017-03-18T12:10:43.144Z,69.63
2017-03-18T12:11:52.367Z,67.73
2017-03-18T12:13:01.913Z,68.87
2017-03-18T12:14:11.471Z,68.11
2017-03-18T12:15:20.716Z,67.67
2017-03-18T12:16:29.766Z,67.76
2017-03-18T12:17:38.987Z,67.19
2017-03-18T12:18:49.249Z,67.47
2017-03-18T12:19:58.953Z,66.91
2017-03-18T12:21:08.173Z,69.1
2017-03-18T12:22:17.391Z,67.67
2017-03-18T12:23:26.618Z,65.95
2017-03-18T12:24:36.168Z,65.38
2017-03-18T12:25:45.394Z,67.1
2017-03-18T12:26:54.337Z,66.05
2017-03-18T12:28:03.711Z,66.46
2017-03-18T12:29:13.629Z,63.13
2017-03-18T12:30:23.183Z,63.99
2017-03-18T12:31:32.080Z,62.08
2017-03-18T12:32:40.978Z,63.13
2017-03-18T12:33:51.335Z,63.32
2017-03-18T12:35:00.600Z,62.46
2017-03-18T12:36:09.500Z,63.8
2017-03-18T12:37:18.728Z,63.42
2017-03-18T12:38:28.635Z,63.7
2017-03-18T12:39:38.656Z,62.18
2017-03-18T12:40:47.882Z,63.39
2017-03-18T12:41:56.776Z,62.34
2017-03-18T12:43:06.659Z,66.14
2017-03-18T12:44:16.542Z,66.33
2017-03-18T12:45:26.142Z,67.19
2017-03-18T12:46:35.037Z,65.38
2017-03-18T12:47:43.931Z,65.1
2017-03-18T12:48:53.482Z,67.19
2017-03-18T12:50:03.694Z,65.23
2017-03-18T12:51:13.027Z,67.19
2017-03-18T12:52:22.934Z,64.65
2017-03-18T12:53:32.151Z,63.99
2017-03-18T12:54:42.362Z,65.8
2017-03-18T12:55:51.588Z,62.27
2017-03-18T12:57:00.864Z,62.08
2017-03-18T12:58:10.411Z,62.37
2017-03-18T12:59:20.294Z,61.8
2017-03-18T13:00:30.191Z,61.04
2017-03-18T13:01:39.088Z,62.08
2017-03-18T13:02:49.030Z,62.46
2017-03-18T13:03:58.583Z,66.37
2017-03-18T13:05:08.462Z,61.51
2017-03-18T13:06:18.048Z,61.51
2017-03-18T13:07:26.943Z,60.37
2017-03-18T13:08:36.546Z,60.37
2017-03-18T13:09:46.756Z,60.85
2017-03-18T13:10:56.629Z,60.94
2017-03-18T13:12:05.855Z,62.27
2017-03-18T13:13:15.534Z,62.08
2017-03-18T13:14:25.326Z,61.32
2017-03-18T13:15:35.246Z,62.27
2017-03-18T13:16:44.151Z,61.04
2017-03-18T13:17:53.390Z,63.04
2017-03-18T13:19:02.612Z,63.42
2017-03-18T13:20:11.885Z,64.18
2017-03-18T13:21:21.757Z,61.51
2017-03-18T13:22:30.660Z,62.56
2017-03-18T13:23:39.885Z,63.04
2017-03-18T13:24:49.781Z,62.18
2017-03-18T13:25:59.530Z,62.24
2017-03-18T13:27:08.446Z,61.38
2017-03-18T13:28:17.345Z,63.2
2017-03-18T13:29:26.579Z,63.42
2017-03-18T13:30:36.122Z,61.7
2017-03-18T13:31:45.503Z,60.18
2017-03-18T13:32:54.403Z,58.62
2017-03-18T13:34:04.001Z,59.77
2017-03-18T13:35:13.674Z,60.91
2017-03-18T13:36:22.565Z,60.53
2017-03-18T13:37:31.756Z,59.89
2017-03-18T13:38:42.555Z,61.51
2017-03-18T13:39:52.111Z,60.56
2017-03-18T13:41:01.983Z,60.37
2017-03-18T13:42:11.207Z,60.56
2017-03-18T13:43:20.164Z,59.32
2017-03-18T13:44:29.386Z,61.77
2017-03-18T13:45:39.250Z,60.82
2017-03-18T13:46:48.474Z,59.96
2017-03-18T13:47:57.368Z,60.46
2017-03-18T13:49:07.099Z,61.77
2017-03-18T13:50:16.746Z,62.56
2017-03-18T13:51:25.966Z,63.51
2017-03-18T13:52:35.473Z,63.76
2017-03-18T13:53:45.084Z,62.94
2017-03-18T13:54:54.935Z,62.91
2017-03-18T13:56:04.807Z,62.34
2017-03-18T13:57:13.723Z,61.77
2017-03-18T13:58:23.593Z,61
2017-03-18T13:59:32.531Z,62.91
2017-03-18T14:00:42.327Z,63.29
2017-03-18T14:01:51.228Z,61.96
2017-03-18T14:03:00.146Z,64.34
2017-03-18T14:04:09.382Z,63.96
2017-03-18T14:05:19.252Z,62.43
2017-03-18T14:06:28.202Z,63.39
2017-03-18T14:07:37.104Z,64.53
2017-03-18T14:08:46.663Z,65.58
2017-03-18T14:09:56.544Z,64.05
2017-03-18T14:11:06.419Z,63.48
2017-03-18T14:12:15.743Z,65.1
2017-03-18T14:13:24.638Z,63.39
2017-03-18T14:14:34.186Z,62.81
2017-03-18T14:15:44.055Z,62.91
2017-03-18T14:16:53.273Z,61.96
2017-03-18T14:18:02.644Z,63.01
2017-03-18T14:19:12.221Z,62.24
2017-03-18T14:20:21.443Z,62.05
2017-03-18T14:21:30.350Z,62.91
2017-03-18T14:22:39.583Z,62.43
2017-03-18T14:23:49.564Z,62.34
2017-03-18T14:24:59.779Z,63.96
2017-03-18T14:26:08.694Z,62.24
2017-03-18T14:27:17.589Z,63.67
2017-03-18T14:28:27.134Z,63.29
2017-03-18T14:29:36.781Z,63.01
2017-03-18T14:30:46.328Z,62.53
2017-03-18T14:31:55.220Z,63.29
2017-03-18T14:33:04.777Z,62.43
2017-03-18T14:34:14.339Z,63.67
2017-03-18T14:35:24.796Z,63.76
2017-03-18T14:36:34.024Z,63.39
2017-03-18T14:37:42.958Z,64.59
2017-03-18T14:38:52.826Z,64.02
2017-03-18T14:40:02.387Z,64.78
2017-03-18T14:41:11.526Z,65.64
2017-03-18T14:42:21.072Z,66.3
2017-03-18T14:43:30.292Z,65.38
2017-03-18T14:44:39.838Z,65.29
2017-03-18T14:45:49.056Z,66.24
2017-03-18T14:46:58.431Z,67.29
2017-03-18T14:48:07.659Z,65.58
2017-03-18T14:49:16.882Z,67.25
2017-03-18T14:50:27.084Z,67.07
2017-03-18T14:51:36.628Z,67.63
2017-03-18T14:52:46.149Z,67.54
2017-03-18T14:53:56.028Z,69.25
2017-03-18T14:55:05.897Z,68.59
2017-03-18T14:56:15.436Z,69.06